createdAt,value
2022-12-01T00:01:19.197Z,19.08
2022-12-01T00:03:47.199Z,20.35
2022-12-01T00:06:17.099Z,20.15
2022-12-01T00:09:06.469Z,19.95
2022-12-01T00:11:34.333Z,19.77
2022-12-01T00:14:02.529Z,19.17
2022-12-01T00:16:32.569Z,17.55
2022-12-01T00:19:00.910Z,19.35
2022-12-01T00:21:29.618Z,19.67
2022-12-01T00:23:59.446Z,20.05
2022-12-01T00:26:28.626Z,19.13
2022-12-01T00:28:57.823Z,18.73
2022-12-01T00:31:26.645Z,18.60
2022-12-01T00:33:56.357Z,18.27
2022-12-01T00:36:25.077Z,18.98
2022-12-01T00:38:54.403Z,20.50
2022-12-01T00:41:23.144Z,19.10
2022-12-01T00:43:51.276Z,20.35
2022-12-01T00:46:19.474Z,19.95
2022-12-01T00:48:47.541Z,20.35
2022-12-01T00:51:16.838Z,20.38
2022-12-01T00:53:44.823Z,17.83
2022-12-01T00:56:12.756Z,20.08
2022-12-01T00:58:40.696Z,19.38
2022-12-01T01:01:08.999Z,18.98
2022-12-01T01:03:37.146Z,19.42
2022-12-01T01:06:06.888Z,18.40
2022-12-01T01:08:36.636Z,20.08
2022-12-01T01:11:05.862Z,18.98
2022-12-01T01:13:34.666Z,17.65
2022-12-01T01:16:05.307Z,20.67
2022-12-01T01:18:34.047Z,20.73
2022-12-01T01:21:03.458Z,17.63
2022-12-01T01:23:31.434Z,21.15
2022-12-01T01:26:04.895Z,20.30
2022-12-01T01:28:33.272Z,20.13
2022-12-01T01:31:05.507Z,21.63
2022-12-01T01:33:33.687Z,20.70
2022-12-01T01:36:02.186Z,21.60
2022-12-01T01:38:31.032Z,18.60
2022-12-01T01:40:59.182Z,18.70
2022-12-01T01:43:44.602Z,20.08
2022-12-01T01:46:14.422Z,20.10
2022-12-01T01:48:44.784Z,20.50
2022-12-01T01:51:13.903Z,21.00
2022-12-01T01:53:42.873Z,19.92
2022-12-01T01:56:11.247Z,18.95
2022-12-01T01:58:42.263Z,20.65
2022-12-01T02:01:10.317Z,21.83
2022-12-01T02:03:40.902Z,20.38
2022-12-01T02:06:10.499Z,20.73
2022-12-01T02:08:38.866Z,19.17
2022-12-01T02:11:48.514Z,22.35
2022-12-01T02:14:56.638Z,19.98
2022-12-01T02:17:33.585Z,20.30
2022-12-01T02:20:24.463Z,20.90
2022-12-01T02:23:14.092Z,20.42
2022-12-01T02:25:50.181Z,21.90
2022-12-01T02:28:35.741Z,22.75
2022-12-01T02:31:09.287Z,23.50
2022-12-01T02:33:43.174Z,20.30
2022-12-01T02:36:16.727Z,22.05
2022-12-01T02:38:53.827Z,21.55
2022-12-01T02:41:27.404Z,19.55
2022-12-01T02:44:02.964Z,20.92
2022-12-01T02:46:35.240Z,21.13
2022-12-01T02:49:08.570Z,21.65
2022-12-01T02:51:39.124Z,21.25
2022-12-01T02:54:07.526Z,21.48
2022-12-01T02:56:35.581Z,22.02
2022-12-01T02:59:03.531Z,19.83
2022-12-01T03:01:50.748Z,20.33
2022-12-01T03:04:38.937Z,21.13
2022-12-01T03:07:15.590Z,20.50
2022-12-01T03:09:53.903Z,20.75
2022-12-01T03:12:29.925Z,19.92
2022-12-01T03:15:05.288Z,22.00
2022-12-01T03:17:39.902Z,19.27
2022-12-01T03:20:13.944Z,22.08
2022-12-01T03:22:45.649Z,22.23
2022-12-01T03:25:16.485Z,21.52
2022-12-01T03:28:06.697Z,21.83
2022-12-01T03:30:37.860Z,20.02
2022-12-01T03:33:11.846Z,22.15
2022-12-01T03:35:43.763Z,20.05
2022-12-01T03:38:15.644Z,24.63
2022-12-01T03:40:45.972Z,21.90
2022-12-01T03:43:20.639Z,21.08
2022-12-01T03:45:56.378Z,22.70
2022-12-01T03:48:26.690Z,22.33
2022-12-01T03:51:02.193Z,23.55
2022-12-01T03:53:39.029Z,22.80
2022-12-01T03:56:08.988Z,23.65
2022-12-01T03:58:41.221Z,22.52
2022-12-01T04:01:09.950Z,23.77
2022-12-01T04:03:39.365Z,22.60
2022-12-01T04:06:07.936Z,22.92
2022-12-01T04:08:37.443Z,24.27
2022-12-01T04:11:32.220Z,22.90
2022-12-01T04:13:59.553Z,22.25
2022-12-01T04:16:27.604Z,22.70
2022-12-01T04:18:57.150Z,22.63
2022-12-01T04:21:25.054Z,20.80
2022-12-01T04:24:01.732Z,22.42
2022-12-01T04:26:30.748Z,21.15
2022-12-01T04:28:59.446Z,22.13
2022-12-01T04:31:27.755Z,23.98
2022-12-01T04:33:57.745Z,22.83
2022-12-01T04:36:26.114Z,22.05
2022-12-01T04:38:54.002Z,23.38
2022-12-01T04:41:22.010Z,23.80
2022-12-01T04:43:49.935Z,24.30
2022-12-01T04:46:17.881Z,21.83
2022-12-01T04:48:46.209Z,21.65
2022-12-01T04:51:15.700Z,22.02
2022-12-01T04:53:43.681Z,20.83
2022-12-01T04:56:11.801Z,19.38
2022-12-01T04:58:39.789Z,21.05
2022-12-01T05:01:10.393Z,22.25
2022-12-01T05:03:39.131Z,18.92
2022-12-01T05:06:11.588Z,20.17
2022-12-01T05:08:41.491Z,20.95
2022-12-01T05:11:12.205Z,17.88
2022-12-01T05:13:41.117Z,20.02
2022-12-01T05:16:11.366Z,22.27
2022-12-01T05:18:39.583Z,22.13
2022-12-01T05:21:09.250Z,21.80
2022-12-01T05:23:38.590Z,20.88
2022-12-01T05:26:09.285Z,21.13
2022-12-01T05:28:37.262Z,21.23
2022-12-01T05:31:05.768Z,19.08
2022-12-01T05:33:33.682Z,20.38
2022-12-01T05:36:01.810Z,20.52
2022-12-01T05:38:29.821Z,21.30
2022-12-01T05:40:57.713Z,19.63
2022-12-01T05:43:29.320Z,22.10
2022-12-01T05:46:00.821Z,23.20
2022-12-01T05:48:28.820Z,20.50
2022-12-01T05:50:56.941Z,21.50
2022-12-01T05:53:24.938Z,21.33
2022-12-01T05:55:54.292Z,19.75
2022-12-01T05:58:22.310Z,21.02
2022-12-01T06:00:51.770Z,19.13
2022-12-01T06:03:22.551Z,20.30
2022-12-01T06:05:50.905Z,18.80
2022-12-01T06:08:18.890Z,16.45
2022-12-01T06:10:47.223Z,17.48
2022-12-01T06:13:15.160Z,17.88
2022-12-01T06:15:43.285Z,16.88
2022-12-01T06:18:12.739Z,16.23
2022-12-01T06:20:40.678Z,17.23
2022-12-01T06:23:08.595Z,17.30
2022-12-01T06:25:36.480Z,17.20
2022-12-01T06:28:04.676Z,17.65
2022-12-01T06:30:32.631Z,16.70
2022-12-01T06:33:00.519Z,17.52
2022-12-01T06:35:29.871Z,17.30
2022-12-01T06:37:57.810Z,17.63
2022-12-01T06:40:25.795Z,19.60
2022-12-01T06:42:53.882Z,16.83
2022-12-01T06:45:21.903Z,17.40
2022-12-01T06:47:53.907Z,18.30
2022-12-01T06:50:21.923Z,16.08
2022-12-01T06:52:52.670Z,17.05
2022-12-01T06:55:20.809Z,15.68
2022-12-01T06:57:48.965Z,15.13
2022-12-01T07:00:18.226Z,17.33
2022-12-01T07:02:47.216Z,15.02
2022-12-01T07:05:15.301Z,13.48
2022-12-01T07:07:43.276Z,15.75
2022-12-01T07:10:13.713Z,16.05
2022-12-01T07:12:41.862Z,15.20
2022-12-01T07:15:10.504Z,14.70
2022-12-01T07:17:38.484Z,14.57
2022-12-01T07:20:07.656Z,14.13
2022-12-01T07:22:36.095Z,16.70
2022-12-01T07:25:04.258Z,17.55
2022-12-01T07:27:33.548Z,14.80
2022-12-01T07:30:02.242Z,15.68
2022-12-01T07:32:30.226Z,16.08
2022-12-01T07:34:58.194Z,15.98
2022-12-01T07:37:26.265Z,14.02
2022-12-01T07:39:54.177Z,17.20
2022-12-01T07:42:22.108Z,18.15
2022-12-01T07:44:51.333Z,17.30
2022-12-01T07:47:19.871Z,19.35
2022-12-01T07:49:48.236Z,19.08
2022-12-01T07:52:16.460Z,18.98
2022-12-01T07:54:44.350Z,19.40
2022-12-01T07:57:14.247Z,18.38
2022-12-01T07:59:42.283Z,19.58
2022-12-01T08:02:12.246Z,18.15
2022-12-01T08:04:40.473Z,18.83
2022-12-01T08:07:08.544Z,18.95
2022-12-01T08:09:37.196Z,18.20
2022-12-01T08:12:05.561Z,19.40
2022-12-01T08:14:36.091Z,19.83
2022-12-01T08:17:04.089Z,18.67
2022-12-01T08:19:33.736Z,17.17
2022-12-01T08:22:01.804Z,18.38
2022-12-01T08:24:30.876Z,17.83
2022-12-01T08:26:58.803Z,17.00
2022-12-01T08:29:30.775Z,18.25
2022-12-01T08:31:58.868Z,17.50
2022-12-01T08:34:26.859Z,16.17
2022-12-01T08:36:56.113Z,16.40
2022-12-01T08:39:24.075Z,16.30
2022-12-01T08:41:52.008Z,19.80
2022-12-01T08:44:20.024Z,17.45
2022-12-01T08:46:48.024Z,18.02
2022-12-01T08:49:16.158Z,17.75
2022-12-01T08:51:44.131Z,16.08
2022-12-01T08:54:13.539Z,15.43
2022-12-01T08:56:43.351Z,16.65
2022-12-01T08:59:11.398Z,17.60
2022-12-01T09:01:51.816Z,15.68
2022-12-01T09:04:21.192Z,15.70
2022-12-01T09:06:50.583Z,16.13
2022-12-01T09:09:21.536Z,17.10
2022-12-01T09:11:52.132Z,14.65
2022-12-01T09:14:21.338Z,15.82
2022-12-01T09:16:51.019Z,16.13
2022-12-01T09:19:24.761Z,15.82
2022-12-01T09:21:54.114Z,17.63
2022-12-01T09:24:24.151Z,15.82
2022-12-01T09:26:56.226Z,16.77
2022-12-01T09:29:24.288Z,16.42
2022-12-01T09:31:52.636Z,13.43
2022-12-01T09:34:21.294Z,15.07
2022-12-01T09:36:49.430Z,14.30
2022-12-01T09:39:19.833Z,13.93
2022-12-01T09:41:52.998Z,14.57
2022-12-01T09:44:32.949Z,15.55
2022-12-01T09:47:08.823Z,16.60
2022-12-01T09:49:46.881Z,15.27
2022-12-01T09:52:17.978Z,15.43
2022-12-01T09:54:46.927Z,15.48
2022-12-01T09:57:25.567Z,14.18
2022-12-01T09:59:54.508Z,15.90
2022-12-01T10:02:29.491Z,14.13
2022-12-01T10:05:00.658Z,14.43
2022-12-01T10:07:31.724Z,15.88
2022-12-01T10:10:02.216Z,13.10
2022-12-01T10:12:35.813Z,16.05
2022-12-01T10:15:16.502Z,14.68
2022-12-01T10:17:58.241Z,13.48
2022-12-01T10:20:32.456Z,14.63
2022-12-01T10:23:30.935Z,13.18
2022-12-01T10:26:01.677Z,12.57
2022-12-01T10:28:54.076Z,14.90
2022-12-01T10:31:32.786Z,15.25
2022-12-01T10:34:03.237Z,13.35
2022-12-01T10:36:33.889Z,15.13
2022-12-01T10:39:02.571Z,18.05
2022-12-01T10:41:34.799Z,13.60
2022-12-01T10:44:06.868Z,14.40
2022-12-01T10:46:41.863Z,14.95
2022-12-01T10:49:12.290Z,15.45
2022-12-01T10:51:53.388Z,14.25
2022-12-01T10:54:22.885Z,15.35
2022-12-01T10:56:56.846Z,14.52
2022-12-01T10:59:32.075Z,15.82
2022-12-01T11:02:02.547Z,15.77
2022-12-01T11:04:46.043Z,14.07
2022-12-01T11:07:20.400Z,14.50
2022-12-01T11:10:00.994Z,15.32
2022-12-01T11:12:29.698Z,14.75
2022-12-01T11:14:59.486Z,15.65
2022-12-01T11:17:31.586Z,14.27
2022-12-01T11:20:00.302Z,15.30
2022-12-01T11:22:30.897Z,15.15
2022-12-01T11:25:01.779Z,14.77
2022-12-01T11:27:34.352Z,13.65
2022-12-01T11:30:07.039Z,15.93
2022-12-01T11:32:38.294Z,13.82
2022-12-01T11:35:16.590Z,14.45
2022-12-01T11:38:13.372Z,14.60
2022-12-01T11:40:46.968Z,15.00
2022-12-01T11:43:26.293Z,14.68
2022-12-01T11:45:58.681Z,13.70
2022-12-01T11:48:29.396Z,14.73
2022-12-01T11:51:04.355Z,15.18
2022-12-01T11:53:34.588Z,14.70
2022-12-01T11:56:18.042Z,14.73
2022-12-01T11:58:48.770Z,14.00
2022-12-01T12:01:29.351Z,14.02
2022-12-01T12:04:07.644Z,14.05
2022-12-01T12:06:43.213Z,15.63
2022-12-01T12:09:40.141Z,14.70
2022-12-01T12:12:23.156Z,14.32
2022-12-01T12:15:01.650Z,14.90
2022-12-01T12:17:49.421Z,15.00
2022-12-01T12:20:32.399Z,13.93
2022-12-01T12:23:16.833Z,13.73
2022-12-01T12:25:55.057Z,15.10
2022-12-01T12:28:38.733Z,13.32
2022-12-01T12:31:15.707Z,13.73
2022-12-01T12:34:23.643Z,13.48
2022-12-01T12:37:06.917Z,13.75
2022-12-01T12:39:51.357Z,13.50
2022-12-01T12:42:29.384Z,14.43
2022-12-01T12:45:06.170Z,13.15
2022-12-01T12:47:52.082Z,13.43
2022-12-01T12:50:28.322Z,13.68
2022-12-01T12:53:00.531Z,14.50
2022-12-01T12:55:34.024Z,14.27
2022-12-01T12:58:11.082Z,13.38
2022-12-01T13:00:45.399Z,13.50
2022-12-01T13:03:18.709Z,14.63
2022-12-01T13:05:51.573Z,12.63
2022-12-01T13:08:24.355Z,14.05
2022-12-01T13:10:58.980Z,13.85
2022-12-01T13:13:32.320Z,13.75
2022-12-01T13:16:03.484Z,15.65
2022-12-01T13:18:40.285Z,14.38
2022-12-01T13:21:17.207Z,14.35
2022-12-01T13:23:46.914Z,14.43
2022-12-01T13:26:18.200Z,13.68
2022-12-01T13:28:50.532Z,13.80
2022-12-01T13:31:20.985Z,15.75
2022-12-01T13:33:56.774Z,15.98
2022-12-01T13:39:19.991Z,15.90
2022-12-01T13:41:58.935Z,12.20
2022-12-01T13:44:29.563Z,13.52
2022-12-01T13:47:00.234Z,12.43
2022-12-01T13:49:41.976Z,13.73
2022-12-01T13:52:33.834Z,14.13
2022-12-01T13:55:24.165Z,14.85
2022-12-01T13:58:26.278Z,14.38
2022-12-01T14:01:15.013Z,15.07
2022-12-01T14:03:53.868Z,15.07
2022-12-01T14:06:27.999Z,14.57
2022-12-01T14:09:00.798Z,15.80
2022-12-01T14:11:32.037Z,12.57
2022-12-01T14:14:03.730Z,14.05
2022-12-01T14:16:48.154Z,13.73
2022-12-01T14:19:29.425Z,13.30
2022-12-01T14:21:58.517Z,14.65
2022-12-01T14:24:31.219Z,13.80
2022-12-01T14:27:00.862Z,13.25
2022-12-01T14:29:32.107Z,13.38
2022-12-01T14:32:22.378Z,14.60
2022-12-01T14:35:01.538Z,13.75
2022-12-01T14:37:38.288Z,15.65
2022-12-01T14:40:13.716Z,14.48
2022-12-01T14:43:04.039Z,16.02
2022-12-01T14:45:39.279Z,14.68
2022-12-01T14:48:13.531Z,15.75
2022-12-01T14:50:46.957Z,15.98
2022-12-01T14:53:22.252Z,12.95
2022-12-01T14:55:56.157Z,15.23
2022-12-01T14:58:29.256Z,15.75
2022-12-01T15:01:07.159Z,15.57
2022-12-01T15:03:42.464Z,14.50
2022-12-01T15:06:17.032Z,14.68
2022-12-01T15:08:58.422Z,15.05
2022-12-01T15:11:33.212Z,16.52
2022-12-01T15:14:02.669Z,14.73
2022-12-01T15:16:31.994Z,15.60
2022-12-01T15:19:00.174Z,14.10
2022-12-01T15:21:30.963Z,14.40
2022-12-01T15:24:02.134Z,13.80
2022-12-01T15:26:32.786Z,15.38
2022-12-01T15:29:16.980Z,14.48
2022-12-01T15:31:47.644Z,14.15
2022-12-01T15:34:18.306Z,14.68
2022-12-01T15:36:47.226Z,13.30
2022-12-01T15:39:17.769Z,14.88
2022-12-01T15:41:48.259Z,14.85
2022-12-01T15:44:26.734Z,15.35
2022-12-01T15:46:55.325Z,16.30
2022-12-01T15:49:29.552Z,14.73
2022-12-01T15:52:07.367Z,14.50
2022-12-01T15:54:37.742Z,14.85
2022-12-01T15:57:07.040Z,14.23
2022-12-01T15:59:40.282Z,14.75
2022-12-01T16:02:23.458Z,14.50
2022-12-01T16:05:02.204Z,14.75
2022-12-01T16:08:04.891Z,14.23
2022-12-01T16:10:31.333Z,12.85
2022-12-01T16:13:38.830Z,12.13
2022-12-01T16:16:40.828Z,14.00
2022-12-01T16:19:28.174Z,11.73
2022-12-01T16:22:00.971Z,12.60
2022-12-01T16:24:32.564Z,12.32
2022-12-01T16:27:03.559Z,16.23
2022-12-01T16:29:34.990Z,12.98
2022-12-01T16:32:21.095Z,13.73
2022-12-01T16:34:51.037Z,14.63
2022-12-01T16:37:19.262Z,12.70
2022-12-01T16:39:47.245Z,12.55
2022-12-01T16:42:17.495Z,12.82
2022-12-01T16:44:46.610Z,15.40
2022-12-01T16:47:20.369Z,13.82
2022-12-01T16:49:48.903Z,13.35
2022-12-01T16:55:06.060Z,14.32
2022-12-01T16:57:34.020Z,13.05
2022-12-01T17:00:02.256Z,13.93
2022-12-01T17:02:31.749Z,12.77
2022-12-01T17:04:59.983Z,15.07
2022-12-01T17:07:28.050Z,13.98
2022-12-01T17:09:56.162Z,14.13
2022-12-01T17:12:26.332Z,12.82
2022-12-01T17:14:54.373Z,13.80
2022-12-01T17:17:22.295Z,13.98
2022-12-01T17:19:53.888Z,14.52
2022-12-01T17:22:21.978Z,16.67
2022-12-01T17:24:50.783Z,13.73
2022-12-01T17:27:19.148Z,13.98
2022-12-01T17:29:47.212Z,13.60
2022-12-01T17:32:15.723Z,15.00
2022-12-01T17:34:43.714Z,14.77
2022-12-01T17:37:19.058Z,15.55
2022-12-01T17:39:49.117Z,12.88
2022-12-01T17:42:17.434Z,15.20
2022-12-01T17:44:45.653Z,16.58
2022-12-01T17:47:13.925Z,14.45
2022-12-01T17:49:42.002Z,13.88
2022-12-01T17:52:09.992Z,15.77
2022-12-01T17:54:39.460Z,15.10
2022-12-01T17:57:08.379Z,14.98
2022-12-01T17:59:37.709Z,13.90
2022-12-01T18:02:06.094Z,13.85
2022-12-01T18:04:35.794Z,14.95
2022-12-01T18:07:03.854Z,16.77
2022-12-01T18:09:32.085Z,13.85
2022-12-01T18:12:02.013Z,12.98
2022-12-01T18:14:32.691Z,15.02
2022-12-01T18:17:00.706Z,15.02
2022-12-01T18:19:28.666Z,15.27
2022-12-01T18:21:56.949Z,14.18
2022-12-01T18:24:26.465Z,13.15
2022-12-01T18:26:55.857Z,12.45
2022-12-01T18:29:28.546Z,14.63
2022-12-01T18:31:57.172Z,13.63
2022-12-01T18:34:25.991Z,13.35
2022-12-01T18:36:54.079Z,13.65
2022-12-01T18:39:22.278Z,14.15
2022-12-01T18:41:50.542Z,12.82
2022-12-01T18:44:18.712Z,15.77
2022-12-01T18:46:48.231Z,13.05
2022-12-01T18:49:16.675Z,13.02
2022-12-01T18:51:44.780Z,14.68
2022-12-01T18:54:14.967Z,14.50
2022-12-01T18:56:43.370Z,13.70
2022-12-01T18:59:12.901Z,13.95
2022-12-01T19:01:44.162Z,14.98
2022-12-01T19:04:15.726Z,13.07
2022-12-01T19:06:45.538Z,14.77
2022-12-01T19:09:15.361Z,12.90
2022-12-01T19:11:44.296Z,16.10
2022-12-01T19:14:16.674Z,14.25
2022-12-01T19:16:46.069Z,14.85
2022-12-01T19:19:15.704Z,14.13
2022-12-01T19:21:45.151Z,15.52
2022-12-01T19:24:13.926Z,16.73
2022-12-01T19:26:42.073Z,12.52
2022-12-01T19:29:10.115Z,14.00
2022-12-01T19:31:38.398Z,14.80
2022-12-01T19:34:07.441Z,15.40
2022-12-01T19:36:36.940Z,15.40
2022-12-01T19:39:07.658Z,14.95
2022-12-01T19:41:38.553Z,14.02
2022-12-01T19:44:06.875Z,16.98
2022-12-01T19:46:35.515Z,14.73
2022-12-01T19:49:04.965Z,15.73
2022-12-01T19:51:35.145Z,13.85
2022-12-01T19:54:05.790Z,14.00
2022-12-01T19:56:34.462Z,14.77
2022-12-01T19:59:02.894Z,15.40
2022-12-01T20:01:31.458Z,13.73
2022-12-01T20:03:59.787Z,15.30
2022-12-01T20:06:29.680Z,12.52
2022-12-01T20:08:59.184Z,15.60
2022-12-01T20:11:29.742Z,14.07
2022-12-01T20:13:57.940Z,15.20
2022-12-01T20:16:28.376Z,12.68
2022-12-01T20:18:56.501Z,14.55
2022-12-01T20:21:26.392Z,14.40
2022-12-01T20:23:58.239Z,14.32
2022-12-01T20:26:31.059Z,14.90
2022-12-01T20:29:01.625Z,13.70
2022-12-01T20:31:31.950Z,14.15
2022-12-01T20:34:02.679Z,14.13
2022-12-01T20:36:32.101Z,12.55
2022-12-01T20:39:00.298Z,12.90
2022-12-01T20:41:29.831Z,13.18
2022-12-01T20:44:02.359Z,12.10
2022-12-01T20:46:34.231Z,11.27
2022-12-01T20:49:02.506Z,12.07
2022-12-01T20:51:33.173Z,11.52
2022-12-01T20:54:26.748Z,12.88
2022-12-01T20:56:51.075Z,11.88
2022-12-01T20:59:19.200Z,10.50
2022-12-01T21:01:47.374Z,11.93
2022-12-01T21:04:15.388Z,11.45
2022-12-01T21:06:43.616Z,10.57
2022-12-01T21:09:12.976Z,11.73
2022-12-01T21:12:04.581Z,11.38
2022-12-01T21:14:38.313Z,10.48
2022-12-01T21:17:19.344Z,11.13
2022-12-01T21:19:56.390Z,10.68
2022-12-01T21:22:25.856Z,10.57
2022-12-01T21:25:02.678Z,11.57
2022-12-01T21:27:37.224Z,13.07
2022-12-01T21:30:18.971Z,11.40
2022-12-01T21:32:47.933Z,10.48
2022-12-01T21:35:19.859Z,10.32
2022-12-01T21:37:49.246Z,8.77
2022-12-01T21:40:20.749Z,11.18
2022-12-01T21:42:49.345Z,10.77
2022-12-01T21:45:23.511Z,12.52
2022-12-01T21:47:51.595Z,11.50
2022-12-01T21:50:23.745Z,11.45
2022-12-01T21:52:52.103Z,11.15
2022-12-01T21:55:37.150Z,11.93
2022-12-01T21:58:24.400Z,11.20
2022-12-01T22:01:00.598Z,11.80
2022-12-01T22:03:34.398Z,10.75
2022-12-01T22:08:54.607Z,10.40
2022-12-01T22:11:24.165Z,10.35
2022-12-01T22:13:55.958Z,11.73
2022-12-01T22:16:31.040Z,11.57
2022-12-01T22:19:01.257Z,11.35
2022-12-01T22:21:33.968Z,12.80
2022-12-01T22:24:23.819Z,12.50
2022-12-01T22:26:58.197Z,13.00
2022-12-01T22:29:34.822Z,11.60
2022-12-01T22:32:41.257Z,12.15
2022-12-01T22:35:27.320Z,11.23
2022-12-01T22:37:59.257Z,12.68
2022-12-01T22:40:34.928Z,12.38
2022-12-01T22:43:28.424Z,13.85
2022-12-01T22:46:16.521Z,12.40
2022-12-01T22:48:46.440Z,14.73
2022-12-01T22:51:28.685Z,12.70
2022-12-01T22:54:01.275Z,14.45
2022-12-01T22:56:34.630Z,14.70
2022-12-01T22:59:11.452Z,15.70
2022-12-01T23:01:44.183Z,14.20
2022-12-01T23:04:34.372Z,14.00
2022-12-01T23:07:11.153Z,14.38
2022-12-01T23:09:41.886Z,13.32
2022-12-01T23:12:26.272Z,11.70
2022-12-01T23:14:59.055Z,12.45
2022-12-01T23:17:29.653Z,11.13
2022-12-01T23:20:26.048Z,12.65
2022-12-01T23:22:56.030Z,12.88
2022-12-01T23:25:25.147Z,11.50
2022-12-01T23:27:54.981Z,10.50
2022-12-01T23:30:23.990Z,11.48
2022-12-01T23:33:00.342Z,11.00
2022-12-01T23:35:28.377Z,10.90
2022-12-01T23:37:57.764Z,13.38
2022-12-01T23:40:30.937Z,10.95
2022-12-01T23:42:59.931Z,12.15
2022-12-01T23:45:28.772Z,9.80
2022-12-01T23:47:57.639Z,11.55
2022-12-01T23:50:28.429Z,9.63
2022-12-01T23:52:58.087Z,11.63
2022-12-01T23:55:29.472Z,11.25
2022-12-01T23:57:59.237Z,11.13
